Time;durP1;ratioP1;P1;durP2;ratioP2;P2;SDS_P1;SDS_P2;PMS_P1;PMS_P2;Temp;Humidity;BMP_temperature;BMP_pressure;BME280_temperature;BME280_humidity;BME280_pressure;Samples;Min_cycle;Max_cycle;Signal;HPM_P1;HPM_P2
2022/05/31 00:00:08;;;;;;;1.83;1.23;;;;;;;;;;5007500;28;20121;-56
2022/05/31 00:05:36;;;;;;;1.65;1.05;;;;;;;;;;5007793;28;20053;-57
2022/05/31 00:14:34;;;;;;;2.10;1.20;;;;;;;;;;5048454;28;20056;-57
2022/05/31 00:17:30;;;;;;;5.18;1.58;;;;;;;;;;5030491;28;20395;-56
2022/05/31 00:20:28;;;;;;;2.05;1.48;;;;;;;;;;5048835;28;20431;-57
2022/05/31 00:22:55;;;;;;;2.42;1.25;;;;;;;;;;5048635;28;20117;-56
2022/05/31 00:25:45;;;;;;;;;;;;;;;;;;;;;
2022/05/31 00:28:24;;;;;;;3.03;1.88;;;;;;;;;;5048566;28;20061;-56
2022/05/31 00:31:14;;;;;;;;;;;;;;;;;;;;;
2022/05/31 00:34:03;;;;;;;1.80;1.15;;;;;;;;;;5048732;28;20068;-56
2022/05/31 00:36:47;;;;;;;2.58;1.48;;;;;;;;;;5048503;28;20033;-56
2022/05/31 00:39:26;;;;;;;2.35;1.20;;;;;;;;;;5030092;28;20049;-57
2022/05/31 00:42:21;;;;;;;3.10;1.30;;;;;;;;;;5048394;28;20475;-57
2022/05/31 00:45:03;;;;;;;4.15;1.60;;;;;;;;;;5048556;28;20029;-56
2022/05/31 00:48:04;;;;;;;1.60;1.10;;;;;;;;;;5048239;28;20029;-56
2022/05/31 00:50:39;;;;;;;2.85;1.42;;;;;;;;;;5025668;28;20057;-56
2022/05/31 00:53:20;;;;;;;2.45;1.40;;;;;;;;;;5048367;28;20040;-55
2022/05/31 00:56:00;;;;;;;3.83;1.52;;;;;;;;;;5047781;28;20117;-57
2022/05/31 00:58:50;;;;;;;2.08;1.10;;;;;;;;;;5048182;28;20036;-57
2022/05/31 01:01:41;;;;;;;2.38;1.38;;;;;;;;;;5064017;28;20048;-57
2022/05/31 01:04:08;;;;;;;2.75;1.48;;;;;;;;;;5030372;28;20033;-56
2022/05/31 01:06:47;;;;;;;2.00;1.40;;;;;;;;;;5048196;28;20072;-57
2022/05/31 01:09:40;;;;;;;2.47;1.75;;;;;;;;;;5047919;28;20553;-56
2022/05/31 01:12:27;;;;;;;2.22;1.30;;;;;;;;;;5047273;28;20040;-54
2022/05/31 01:15:06;;;;;;;2.35;1.20;;;;;;;;;;5047421;28;20021;-56
2022/05/31 01:18:01;;;;;;;2.42;1.45;;;;;;;;;;5062185;28;20049;-56
2022/05/31 01:20:43;;;;;;;2.72;1.70;;;;;;;;;;5047454;28;20028;-54
2022/05/31 01:23:43;;;;;;;3.90;1.42;;;;;;;;;;5029488;28;20471;-57
2022/05/31 01:26:38;;;;;;;5.32;1.80;;;;;;;;;;5046879;28;20040;-55
2022/05/31 01:29:31;;;;;;;2.30;1.48;;;;;;;;;;5046309;28;20089;-57
2022/05/31 01:32:20;;;;;;;2.40;1.58;;;;;;;;;;5047016;28;20451;-55
2022/05/31 01:38:38;;;;;;;2.20;1.40;;;;;;;;;;5048054;28;20088;-56
2022/05/31 01:41:42;;;;;;;2.33;1.33;;;;;;;;;;5005699;28;20046;-56
2022/05/31 01:44:34;;;;;;;2.65;1.80;;;;;;;;;;4970673;28;20027;-57
2022/05/31 01:47:10;;;;;;;4.28;1.83;;;;;;;;;;5004919;28;20039;-56
2022/05/31 01:50:00;;;;;;;2.53;1.52;;;;;;;;;;4989888;28;20062;-57
2022/05/31 01:52:42;;;;;;;4.72;1.55;;;;;;;;;;4989918;28;20035;-56
2022/05/31 01:55:15;;;;;;;3.25;1.52;;;;;;;;;;4989953;28;20027;-57
2022/05/31 01:58:01;;;;;;;3.78;2.03;;;;;;;;;;4990411;28;20034;-56
2022/05/31 02:00:39;;;;;;;5.05;2.03;;;;;;;;;;4990323;28;20073;-56
2022/05/31 02:03:09;;;;;;;2.95;1.75;;;;;;;;;;5048628;28;20090;-57
2022/05/31 02:05:47;;;;;;;2.50;1.70;;;;;;;;;;5033019;28;20137;-57
2022/05/31 02:08:43;;;;;;;2.97;1.77;;;;;;;;;;5050985;28;20033;-56
2022/05/31 02:11:30;;;;;;;3.28;2.03;;;;;;;;;;5046178;28;20042;-53
2022/05/31 02:14:37;;;;;;;2.58;1.25;;;;;;;;;;5050032;28;20026;-56
2022/05/31 02:17:26;;;;;;;3.83;1.90;;;;;;;;;;5036877;28;20037;-55
2022/05/31 02:23:03;;;;;;;3.38;1.92;;;;;;;;;;4989889;28;20039;-56
2022/05/31 02:25:57;;;;;;;2.45;1.80;;;;;;;;;;5002682;28;20446;-56
2022/05/31 02:31:25;;;;;;;2.83;1.80;;;;;;;;;;5050658;28;20038;-57
2022/05/31 02:34:26;;;;;;;4.10;1.67;;;;;;;;;;5051019;28;20089;-54
2022/05/31 02:40:08;;;;;;;2.63;1.80;;;;;;;;;;5017706;28;20045;-56
2022/05/31 02:46:22;;;;;;;;;;;;;;;;;;;;;
2022/05/31 02:49:06;;;;;;;2.80;1.33;;;;;;;;;;5007820;28;20125;-55
2022/05/31 02:51:58;;;;;;;2.40;1.80;;;;;;;;;;5008538;28;20085;-56
2022/05/31 02:54:31;;;;;;;2.20;1.42;;;;;;;;;;5046855;28;20030;-56
2022/05/31 03:03:14;;;;;;;2.72;1.85;;;;;;;;;;5047706;28;20080;-54
2022/05/31 03:06:09;;;;;;;2.80;1.83;;;;;;;;;;5049567;28;20022;-56
2022/05/31 03:08:44;;;;;;;6.20;1.90;;;;;;;;;;5065403;28;20033;-55
2022/05/31 03:11:47;;;;;;;3.55;2.13;;;;;;;;;;5049589;28;20501;-54
2022/05/31 03:14:35;;;;;;;2.78;1.77;;;;;;;;;;5043964;28;20049;-54
2022/05/31 03:17:29;;;;;;;3.05;2.13;;;;;;;;;;5064616;28;20471;-55
2022/05/31 03:23:20;;;;;;;;;;;;;;;;;;;;;
2022/05/31 03:26:01;;;;;;;3.63;2.03;;;;;;;;;;5048883;28;20041;-55
2022/05/31 03:28:46;;;;;;;3.67;1.85;;;;;;;;;;5049380;28;20021;-55
2022/05/31 03:31:31;;;;;;;2.80;2.00;;;;;;;;;;5012256;28;20022;-55
2022/05/31 03:34:06;;;;;;;2.90;2.08;;;;;;;;;;5036880;28;20505;-54
2022/05/31 03:37:11;;;;;;;;;;;;;;;;;;;;;
2022/05/31 03:40:06;;;;;;;3.00;1.70;;;;;;;;;;4994912;28;20514;-55
2022/05/31 03:48:56;;;;;;;2.58;1.55;;;;;;;;;;4983668;28;20113;-55
2022/05/31 03:51:36;;;;;;;2.78;1.67;;;;;;;;;;5036860;28;20044;-55
2022/05/31 03:57:11;;;;;;;2.17;1.52;;;;;;;;;;5034965;28;20025;-54
2022/05/31 03:59:58;;;;;;;3.63;2.20;;;;;;;;;;5035506;28;20033;-56
2022/05/31 04:02:56;;;;;;;4.80;2.83;;;;;;;;;;5035821;28;20025;-52
2022/05/31 04:05:37;;;;;;;2.35;1.63;;;;;;;;;;5023412;28;20519;-55
2022/05/31 04:08:32;;;;;;;2.97;1.20;;;;;;;;;;5035288;28;20479;-55
2022/05/31 04:14:13;;;;;;;2.83;1.70;;;;;;;;;;5034272;28;20041;-53
2022/05/31 04:20:42;;;;;;;3.83;1.80;;;;;;;;;;5011974;28;20057;-56
2022/05/31 04:25:45;;;;;;;2.85;1.52;;;;;;;;;;5035193;28;20394;-57
2022/05/31 04:28:30;;;;;;;3.00;2.28;;;;;;;;;;5034079;28;20029;-57
2022/05/31 04:31:32;;;;;;;3.17;2.05;;;;;;;;;;5051221;28;20032;-57
2022/05/31 04:34:16;;;;;;;2.45;1.75;;;;;;;;;;4990157;28;20058;-55
2022/05/31 04:36:51;;;;;;;2.95;1.70;;;;;;;;;;5007277;28;20101;-55
2022/05/31 04:39:32;;;;;;;2.63;1.52;;;;;;;;;;5007783;28;20030;-57
2022/05/31 04:41:58;;;;;;;2.63;1.63;;;;;;;;;;4988902;28;20193;-55
2022/05/31 04:44:43;;;;;;;3.83;2.22;;;;;;;;;;5006285;28;20109;-56
2022/05/31 04:47:19;;;;;;;3.97;2.00;;;;;;;;;;4948280;29;20111;-57
2022/05/31 04:52:44;;;;;;;2.78;1.48;;;;;;;;;;4983786;28;20049;-55
2022/05/31 04:58:18;;;;;;;2.55;1.90;;;;;;;;;;4955687;28;20038;-56
2022/05/31 05:03:52;;;;;;;3.70;2.20;;;;;;;;;;4977581;28;20039;-58
2022/05/31 05:09:57;;;;;;;3.13;1.83;;;;;;;;;;4985770;28;20039;-57
2022/05/31 05:12:34;;;;;;;3.13;1.85;;;;;;;;;;4983322;28;20117;-58
2022/05/31 05:15:55;;;;;;;3.83;1.77;;;;;;;;;;4983138;28;20096;-58
2022/05/31 05:18:19;;;;;;;6.93;2.22;;;;;;;;;;4994188;28;20117;-57
2022/05/31 05:20:57;;;;;;;3.08;1.77;;;;;;;;;;5028073;28;20022;-57
2022/05/31 05:23:36;;;;;;;5.00;2.20;;;;;;;;;;5058018;28;20088;-56
2022/05/31 05:26:27;;;;;;;3.78;2.03;;;;;;;;;;5044782;28;20029;-56
2022/05/31 05:35:07;;;;;;;3.25;2.40;;;;;;;;;;5044942;28;20079;-59
2022/05/31 05:38:20;;;;;;;3.40;2.30;;;;;;;;;;5047475;28;20026;-59
2022/05/31 05:47:15;;;;;;;2.55;1.75;;;;;;;;;;5042469;28;20097;-59
2022/05/31 05:50:08;;;;;;;3.13;2.17;;;;;;;;;;5027978;28;20083;-59
2022/05/31 05:52:49;;;;;;;4.90;2.40;;;;;;;;;;5047246;28;20037;-58
2022/05/31 05:55:34;;;;;;;3.22;2.13;;;;;;;;;;5047228;28;20490;-59
2022/05/31 06:01:56;;;;;;;3.88;2.10;;;;;;;;;;5047687;28;20047;-59
2022/05/31 06:04:42;;;;;;;5.07;2.40;;;;;;;;;;5044776;28;20083;-59
2022/05/31 06:07:30;;;;;;;3.75;2.42;;;;;;;;;;5024345;28;20053;-59
2022/05/31 06:13:39;;;;;;;4.07;2.60;;;;;;;;;;5046794;28;20044;-58
2022/05/31 06:16:20;;;;;;;4.05;2.67;;;;;;;;;;4966972;29;20141;-59
2022/05/31 06:19:17;;;;;;;;;;;;;;;;;;;;;
2022/05/31 06:21:56;;;;;;;6.88;2.22;;;;;;;;;;5046628;28;20053;-58
2022/05/31 06:24:41;;;;;;;3.22;1.92;;;;;;;;;;5049676;28;20033;-59
2022/05/31 06:27:27;;;;;;;7.22;2.58;;;;;;;;;;5050151;28;20116;-56
2022/05/31 06:30:04;;;;;;;8.05;2.88;;;;;;;;;;5032196;28;20021;-58
2022/05/31 06:33:11;;;;;;;4.00;2.22;;;;;;;;;;5050260;28;20021;-58
2022/05/31 06:39:17;;;;;;;5.32;2.10;;;;;;;;;;4989127;28;20046;-58
2022/05/31 06:47:46;;;;;;;3.40;1.92;;;;;;;;;;5009138;28;20082;-59
2022/05/31 06:50:18;;;;;;;5.20;2.25;;;;;;;;;;5008746;28;20042;-59
2022/05/31 06:59:08;;;;;;;2.78;2.03;;;;;;;;;;5009073;28;20780;-58
2022/05/31 07:02:03;;;;;;;3.97;2.00;;;;;;;;;;5008814;28;20038;-58
2022/05/31 07:05:04;;;;;;;3.13;2.05;;;;;;;;;;4991534;28;20100;-58
2022/05/31 07:07:39;;;;;;;2.67;1.73;;;;;;;;;;4931275;29;20047;-58
2022/05/31 07:10:25;;;;;;;4.35;1.88;;;;;;;;;;4960226;28;20460;-58
2022/05/31 07:15:59;;;;;;;2.55;1.73;;;;;;;;;;5029194;28;20435;-58
2022/05/31 07:19:00;;;;;;;4.53;3.10;;;;;;;;;;5007459;28;20034;-58
2022/05/31 07:21:38;;;;;;;4.93;1.52;;;;;;;;;;5007732;28;20385;-58
2022/05/31 07:24:10;;;;;;;2.85;2.03;;;;;;;;;;5008261;28;20157;-57
2022/05/31 07:30:11;;;;;;;3.30;2.13;;;;;;;;;;4988061;28;20035;-58
2022/05/31 07:33:12;;;;;;;4.05;1.55;;;;;;;;;;4985567;28;20046;-58
2022/05/31 07:35:51;;;;;;;1.83;1.17;;;;;;;;;;4998024;28;20457;-58
2022/05/31 07:38:21;;;;;;;2.00;1.33;;;;;;;;;;4989748;28;20469;-58
2022/05/31 07:41:20;;;;;;;2.25;1.45;;;;;;;;;;5007412;28;20065;-58
2022/05/31 07:43:53;;;;;;;2.63;1.40;;;;;;;;;;5028452;28;20502;-58
2022/05/31 07:46:41;;;;;;;3.08;1.55;;;;;;;;;;5062967;28;20348;-58
2022/05/31 07:49:33;;;;;;;3.35;1.85;;;;;;;;;;5062927;28;20029;-59
2022/05/31 07:52:41;;;;;;;;;;;;;;;;;;;;;
2022/05/31 08:01:05;;;;;;;2.80;1.63;;;;;;;;;;5035557;28;20079;-57
2022/05/31 08:03:41;;;;;;;2.70;1.58;;;;;;;;;;5035875;28;20034;-59
2022/05/31 08:09:43;;;;;;;2.17;1.42;;;;;;;;;;5012152;28;20033;-58
2022/05/31 08:12:13;;;;;;;2.63;1.75;;;;;;;;;;5049199;28;20057;-58
2022/05/31 08:14:57;;;;;;;2.83;1.83;;;;;;;;;;5036003;28;20037;-58
2022/05/31 08:17:29;;;;;;;3.15;1.20;;;;;;;;;;5036201;28;20040;-58
2022/05/31 08:20:19;;;;;;;2.75;1.20;;;;;;;;;;5050523;28;20021;-58
2022/05/31 08:23:14;;;;;;;2.47;1.20;;;;;;;;;;5003292;28;20068;-59
2022/05/31 08:25:54;;;;;;;5.38;1.80;;;;;;;;;;5025793;28;20108;-59
2022/05/31 08:28:43;;;;;;;3.63;2.05;;;;;;;;;;5035981;28;20464;-59
2022/05/31 08:31:31;;;;;;;5.18;1.40;;;;;;;;;;5048950;28;20101;-59
2022/05/31 08:37:16;;;;;;;2.40;1.33;;;;;;;;;;5033278;28;20026;-58
2022/05/31 08:39:46;;;;;;;2.78;1.40;;;;;;;;;;5040405;28;20711;-59
2022/05/31 08:42:18;;;;;;;4.00;1.57;;;;;;;;;;5041280;28;20108;-59
2022/05/31 08:57:17;;;;;;;2.25;1.27;;;;;;;;;;5039176;28;20168;-59
2022/05/31 08:59:57;;;;;;;2.40;1.48;;;;;;;;;;5039103;28;20081;-58
2022/05/31 09:02:28;;;;;;;3.58;1.55;;;;;;;;;;5040187;28;20041;-58
2022/05/31 09:05:36;;;;;;;2.38;1.40;;;;;;;;;;5053689;28;20029;-58
2022/05/31 09:08:30;;;;;;;5.63;1.63;;;;;;;;;;5018504;28;20093;-59
2022/05/31 09:11:15;;;;;;;2.97;1.38;;;;;;;;;;5002084;28;20606;-59
2022/05/31 09:14:30;;;;;;;4.95;1.30;;;;;;;;;;5002274;28;20072;-58
2022/05/31 09:20:32;;;;;;;2.10;1.23;;;;;;;;;;4978307;28;20055;-59
2022/05/31 09:23:01;;;;;;;4.65;1.45;;;;;;;;;;5039153;28;20072;-60
2022/05/31 09:29:14;;;;;;;;;;;;;;;;;;;;;
2022/05/31 09:32:12;;;;;;;2.33;1.35;;;;;;;;;;5037859;28;20574;-58
2022/05/31 09:35:00;;;;;;;2.97;1.33;;;;;;;;;;5021013;28;20045;-58
2022/05/31 09:38:00;;;;;;;4.28;1.00;;;;;;;;;;5033374;28;20483;-58
2022/05/31 09:40:49;;;;;;;2.40;1.33;;;;;;;;;;5015857;28;20030;-58
2022/05/31 09:43:49;;;;;;;3.65;1.40;;;;;;;;;;5034300;28;20117;-59
2022/05/31 09:46:53;;;;;;;2.58;0.93;;;;;;;;;;4995624;28;20042;-59
2022/05/31 09:49:42;;;;;;;2.50;1.33;;;;;;;;;;5011707;28;20026;-58
2022/05/31 09:52:43;;;;;;;;;;;;;;;;;;;;;
2022/05/31 10:07:37;;;;;;;1.35;0.68;;;;;;;;;;4952577;28;20023;-58
2022/05/31 10:10:27;;;;;;;1.90;1.20;;;;;;;;;;4998924;28;20045;-59
2022/05/31 10:13:13;;;;;;;2.50;1.42;;;;;;;;;;5018096;28;20117;-60
2022/05/31 10:15:55;;;;;;;1.92;1.00;;;;;;;;;;5004451;28;20034;-59
2022/05/31 10:19:13;;;;;;;;;;;;;;;;;;;;;
2022/05/31 10:21:45;;;;;;;3.38;1.23;;;;;;;;;;5019012;28;20049;-58
2022/05/31 10:24:24;;;;;;;3.20;1.27;;;;;;;;;;5002821;28;20030;-58
2022/05/31 10:27:38;;;;;;;;;;;;;;;;;;;;;
2022/05/31 10:30:28;;;;;;;1.67;1.13;;;;;;;;;;5019332;28;20037;-59
2022/05/31 10:36:19;;;;;;;2.25;1.05;;;;;;;;;;5006093;28;20475;-58
2022/05/31 10:38:46;;;;;;;1.52;0.85;;;;;;;;;;5021183;28;20029;-58
2022/05/31 10:41:30;;;;;;;2.30;1.15;;;;;;;;;;5003792;28;20515;-59
2022/05/31 10:44:08;;;;;;;3.15;1.00;;;;;;;;;;5041594;28;20499;-59
2022/05/31 10:49:59;;;;;;;3.65;1.20;;;;;;;;;;5022225;28;20038;-58
2022/05/31 10:53:04;;;;;;;1.95;1.17;;;;;;;;;;5017307;28;20044;-58
2022/05/31 10:56:15;;;;;;;2.35;1.25;;;;;;;;;;5017857;28;20554;-58
2022/05/31 10:59:06;;;;;;;2.78;1.67;;;;;;;;;;4921620;29;20395;-58
2022/05/31 11:01:59;;;;;;;2.72;1.52;;;;;;;;;;4959436;28;20429;-59
2022/05/31 11:04:49;;;;;;;2.25;1.63;;;;;;;;;;4978094;28;20043;-58
2022/05/31 11:17:25;;;;;;;3.55;1.90;;;;;;;;;;4974996;28;20035;-59
2022/05/31 11:20:18;;;;;;;2.35;1.45;;;;;;;;;;5013442;28;20056;-60
2022/05/31 11:23:14;;;;;;;2.05;1.38;;;;;;;;;;5037755;28;20033;-59
2022/05/31 11:26:17;;;;;;;3.05;2.00;;;;;;;;;;5037352;28;20039;-57
2022/05/31 11:32:27;;;;;;;3.38;1.83;;;;;;;;;;5056320;28;20029;-59
2022/05/31 11:35:27;;;;;;;2.80;1.95;;;;;;;;;;5056188;28;20029;-59
2022/05/31 11:38:26;;;;;;;2.03;1.55;;;;;;;;;;5056003;28;20475;-59
2022/05/31 11:44:28;;;;;;;3.10;1.83;;;;;;;;;;5053766;28;20384;-59
2022/05/31 11:47:16;;;;;;;3.60;2.05;;;;;;;;;;4992818;28;20053;-59
2022/05/31 11:50:01;;;;;;;2.42;1.83;;;;;;;;;;5015857;28;20417;-59
2022/05/31 11:52:41;;;;;;;4.45;2.00;;;;;;;;;;4998711;28;20088;-58
2022/05/31 11:58:31;;;;;;;2.88;1.73;;;;;;;;;;4994504;28;20030;-60
2022/05/31 12:01:09;;;;;;;2.60;1.63;;;;;;;;;;5016405;28;20029;-59
2022/05/31 12:04:01;;;;;;;2.33;1.50;;;;;;;;;;5015470;28;20108;-60
2022/05/31 12:07:07;;;;;;;3.25;1.88;;;;;;;;;;4990980;28;20424;-59
2022/05/31 12:09:58;;;;;;;2.50;1.40;;;;;;;;;;4954894;28;20126;-59
2022/05/31 12:12:37;;;;;;;2.03;1.40;;;;;;;;;;4954891;29;20043;-59
2022/05/31 12:15:46;;;;;;;3.03;1.25;;;;;;;;;;4955493;29;20051;-60
2022/05/31 12:18:29;;;;;;;1.83;1.10;;;;;;;;;;4936420;29;20074;-59
2022/05/31 12:21:06;;;;;;;2.85;1.40;;;;;;;;;;4983675;28;20030;-59
2022/05/31 12:23:51;;;;;;;2.70;1.35;;;;;;;;;;5015132;28;20037;-60
2022/05/31 12:26:48;;;;;;;2.33;1.40;;;;;;;;;;5014951;28;20032;-60
2022/05/31 12:29:22;;;;;;;4.47;1.42;;;;;;;;;;4997551;28;20093;-59
2022/05/31 12:32:07;;;;;;;2.30;1.40;;;;;;;;;;5016052;28;20478;-58
2022/05/31 12:34:45;;;;;;;4.22;1.40;;;;;;;;;;4997918;28;20535;-59
2022/05/31 12:43:51;;;;;;;2.28;1.38;;;;;;;;;;4972063;28;20448;-59
2022/05/31 12:46:48;;;;;;;2.35;1.20;;;;;;;;;;5037435;28;20587;-59
2022/05/31 12:49:32;;;;;;;2.38;1.30;;;;;;;;;;5033905;28;20041;-58
2022/05/31 13:00:52;;;;;;;1.67;1.05;;;;;;;;;;5027684;28;20037;-59
2022/05/31 13:03:49;;;;;;;3.47;1.52;;;;;;;;;;5033490;28;20506;-59
2022/05/31 13:06:34;;;;;;;3.13;1.30;;;;;;;;;;5034036;28;20022;-59
2022/05/31 13:09:40;;;;;;;4.50;1.48;;;;;;;;;;5049506;28;20037;-58
2022/05/31 13:24:42;;;;;;;3.13;1.50;;;;;;;;;;5032559;28;19955;-58
2022/05/31 13:27:12;;;;;;;2.40;1.30;;;;;;;;;;5051632;28;20029;-59
2022/05/31 13:30:01;;;;;;;5.87;1.33;;;;;;;;;;5049450;28;20040;-59
2022/05/31 13:32:44;;;;;;;1.73;1.00;;;;;;;;;;5034321;28;20341;-59
2022/05/31 13:35:33;;;;;;;4.22;1.70;;;;;;;;;;5034689;28;20037;-59
2022/05/31 13:38:20;;;;;;;1.92;1.20;;;;;;;;;;5051345;28;20017;-59
2022/05/31 13:41:20;;;;;;;2.38;1.00;;;;;;;;;;5037817;28;20045;-58
2022/05/31 13:44:07;;;;;;;1.67;0.85;;;;;;;;;;5034085;28;20021;-58
2022/05/31 13:46:53;;;;;;;;;;;;;;;;;;;;;
2022/05/31 13:49:37;;;;;;;3.13;1.33;;;;;;;;;;5033662;28;20040;-59
2022/05/31 13:52:42;;;;;;;2.42;1.27;;;;;;;;;;5033225;28;20077;-59
2022/05/31 13:58:23;;;;;;;2.00;1.20;;;;;;;;;;5008019;28;20025;-59
2022/05/31 14:00:56;;;;;;;2.00;1.30;;;;;;;;;;5062732;28;20514;-59
2022/05/31 14:03:33;;;;;;;3.22;1.42;;;;;;;;;;5031590;28;20057;-59
2022/05/31 14:06:18;;;;;;;1.67;0.98;;;;;;;;;;5033736;28;20141;-59
2022/05/31 14:09:13;;;;;;;2.72;1.60;;;;;;;;;;5033443;28;20405;-59
2022/05/31 14:12:14;;;;;;;;;;;;;;;;;;;;;
2022/05/31 14:15:13;;;;;;;3.03;1.33;;;;;;;;;;5012040;28;20042;-59
2022/05/31 14:17:50;;;;;;;2.33;1.30;;;;;;;;;;5011523;28;20049;-59
2022/05/31 14:23:27;;;;;;;1.58;0.82;;;;;;;;;;5003462;28;20045;-59
2022/05/31 14:26:01;;;;;;;2.20;1.23;;;;;;;;;;5034451;28;20128;-59
2022/05/31 14:28:48;;;;;;;2.58;1.23;;;;;;;;;;5035647;28;20053;-59
2022/05/31 14:31:43;;;;;;;3.40;2.30;;;;;;;;;;5067440;28;20036;-59
2022/05/31 14:34:30;;;;;;;3.70;1.63;;;;;;;;;;5037921;28;20462;-59
2022/05/31 14:37:06;;;;;;;4.47;1.48;;;;;;;;;;5068363;28;20475;-59
2022/05/31 14:43:04;;;;;;;2.65;1.52;;;;;;;;;;4994579;28;20053;-59
2022/05/31 14:45:50;;;;;;;1.65;1.00;;;;;;;;;;4981162;28;20050;-59
2022/05/31 14:52:02;;;;;;;1.98;1.02;;;;;;;;;;4993725;28;20380;-60
2022/05/31 14:58:37;;;;;;;3.38;1.10;;;;;;;;;;5014040;28;20026;-59
2022/05/31 15:03:24;;;;;;;1.77;0.93;;;;;;;;;;5014385;28;20036;-59
2022/05/31 15:06:08;;;;;;;2.53;1.00;;;;;;;;;;5023143;28;20149;-59
2022/05/31 15:09:08;;;;;;;2.38;1.83;;;;;;;;;;5021749;28;20029;-59
2022/05/31 15:23:26;;;;;;;;;;;;;;;;;;;;;
2022/05/31 15:26:36;;;;;;;5.32;1.88;;;;;;;;;;5021263;28;20085;-59
2022/05/31 15:41:40;;;;;;;2.63;1.45;;;;;;;;;;4949107;29;20031;-58
2022/05/31 15:47:23;;;;;;;3.90;1.40;;;;;;;;;;4983400;28;20090;-58
2022/05/31 15:49:49;;;;;;;;;;;;;;;;;;4996322;28;20049;-58
2022/05/31 15:52:58;;;;;;;;;;;;;;;;;;;;;
2022/05/31 15:55:58;;;;;;;;;;;;;;;;;;;;;
2022/05/31 15:58:52;;;;;;;3.13;1.42;;;;;;;;;;4996580;28;20090;-58
2022/05/31 16:01:37;;;;;;;2.90;1.08;;;;;;;;;;4998462;28;20109;-58
2022/05/31 16:04:19;;;;;;;2.95;1.30;;;;;;;;;;5016643;28;20033;-58
2022/05/31 16:06:58;;;;;;;3.17;1.48;;;;;;;;;;5003936;28;20042;-58
2022/05/31 16:13:05;;;;;;;3.08;1.17;;;;;;;;;;5029063;28;20042;-58
2022/05/31 16:15:54;;;;;;;2.67;1.35;;;;;;;;;;5039132;28;20025;-58
2022/05/31 16:18:44;;;;;;;4.97;1.70;;;;;;;;;;5022080;28;20109;-58
2022/05/31 16:21:18;;;;;;;2.83;0.93;;;;;;;;;;5021849;28;20393;-58
2022/05/31 16:26:56;;;;;;;7.30;1.50;;;;;;;;;;5025685;28;20041;-59
2022/05/31 16:32:45;;;;;;;1.95;1.10;;;;;;;;;;4999722;28;20064;-58
2022/05/31 16:35:36;;;;;;;2.35;1.02;;;;;;;;;;4983114;28;20041;-58
2022/05/31 16:43:59;;;;;;;4.53;1.13;;;;;;;;;;5040385;28;20035;-57
2022/05/31 16:46:58;;;;;;;3.58;1.58;;;;;;;;;;5008674;28;20053;-57
2022/05/31 16:49:37;;;;;;;4.57;1.20;;;;;;;;;;5041066;28;20033;-58
2022/05/31 16:52:21;;;;;;;5.10;1.80;;;;;;;;;;5040240;28;20081;-57
2022/05/31 16:55:00;;;;;;;3.60;1.20;;;;;;;;;;5040208;28;20116;-57
2022/05/31 17:00:29;;;;;;;2.78;1.23;;;;;;;;;;5035907;28;20095;-57
2022/05/31 17:21:30;;;;;;;2.42;1.42;;;;;;;;;;4979622;28;20034;-59
2022/05/31 17:24:14;;;;;;;2.58;1.00;;;;;;;;;;4997397;28;20034;-59
2022/05/31 17:30:13;;;;;;;3.05;1.20;;;;;;;;;;4997309;28;20570;-58
2022/05/31 17:39:08;;;;;;;3.45;1.73;;;;;;;;;;4996484;28;20586;-58
2022/05/31 17:42:17;;;;;;;2.70;1.75;;;;;;;;;;4980096;28;20022;-58
2022/05/31 17:44:58;;;;;;;5.53;1.23;;;;;;;;;;4993581;28;20023;-58
2022/05/31 17:47:33;;;;;;;1.85;1.05;;;;;;;;;;4981692;28;20038;-58
2022/05/31 17:56:33;;;;;;;4.53;2.22;;;;;;;;;;4976470;28;20584;-58
2022/05/31 17:59:02;;;;;;;;;;;;;;;;;;4992783;28;20106;-58
2022/05/31 18:01:53;;;;;;;2.67;1.40;;;;;;;;;;4976496;28;19993;-58
2022/05/31 18:05:01;;;;;;;3.20;1.13;;;;;;;;;;4991857;28;20062;-58
2022/05/31 18:07:40;;;;;;;2.25;1.25;;;;;;;;;;4932487;28;20139;-58
2022/05/31 18:10:20;;;;;;;2.05;1.35;;;;;;;;;;4976149;28;20035;-58
2022/05/31 18:12:56;;;;;;;5.82;2.08;;;;;;;;;;4976650;28;20166;-58
2022/05/31 18:15:55;;;;;;;1.52;1.00;;;;;;;;;;4976851;28;20524;-58
2022/05/31 18:18:48;;;;;;;4.03;1.75;;;;;;;;;;4970618;28;20065;-58
2022/05/31 18:21:30;;;;;;;3.03;1.88;;;;;;;;;;5040012;28;20057;-58
2022/05/31 18:27:42;;;;;;;2.08;1.38;;;;;;;;;;4970320;28;20377;-57
2022/05/31 18:30:28;;;;;;;2.15;1.30;;;;;;;;;;4976188;28;20491;-58
2022/05/31 18:33:04;;;;;;;4.95;1.60;;;;;;;;;;4975276;28;20130;-58
2022/05/31 18:35:43;;;;;;;4.22;1.77;;;;;;;;;;4988510;28;20038;-57
2022/05/31 18:41:30;;;;;;;2.33;1.63;;;;;;;;;;5036470;28;20029;-58
2022/05/31 18:44:21;;;;;;;2.80;1.38;;;;;;;;;;5036585;28;20454;-58
2022/05/31 18:47:05;;;;;;;3.10;1.58;;;;;;;;;;5034642;28;20053;-59
2022/05/31 18:52:56;;;;;;;5.05;1.90;;;;;;;;;;5031196;28;20033;-58
2022/05/31 18:55:28;;;;;;;3.90;2.13;;;;;;;;;;5036988;28;20071;-57
2022/05/31 18:58:10;;;;;;;4.70;1.60;;;;;;;;;;5036733;28;20026;-58
2022/05/31 19:00:55;;;;;;;2.70;1.40;;;;;;;;;;5036637;28;20026;-57
2022/05/31 19:03:55;;;;;;;3.10;1.92;;;;;;;;;;5036774;28;20498;-58
2022/05/31 19:06:36;;;;;;;2.83;1.58;;;;;;;;;;5035899;28;20124;-59
2022/05/31 19:12:26;;;;;;;4.65;2.83;;;;;;;;;;4994999;28;20026;-59
2022/05/31 19:14:59;;;;;;;6.18;3.25;;;;;;;;;;5036717;28;20030;-59
2022/05/31 19:17:46;;;;;;;4.88;2.83;;;;;;;;;;5051887;28;20029;-59
2022/05/31 19:20:57;;;;;;;5.45;2.20;;;;;;;;;;5036819;28;20036;-59
2022/05/31 19:23:51;;;;;;;3.08;2.17;;;;;;;;;;5035484;28;20092;-59
2022/05/31 19:26:27;;;;;;;;;;;;;;;;;;;;;
2022/05/31 19:32:34;;;;;;;;;;;;;;;;;;;;;
2022/05/31 19:35:53;;;;;;;3.15;2.20;;;;;;;;;;5039049;28;20113;-59
2022/05/31 19:41:32;;;;;;;2.25;1.45;;;;;;;;;;5038866;28;20052;-58
2022/05/31 19:47:38;;;;;;;;;;;;;;;;;;;;;
2022/05/31 19:53:24;;;;;;;2.40;1.48;;;;;;;;;;4974729;28;20053;-59
2022/05/31 19:56:02;;;;;;;3.03;1.48;;;;;;;;;;4984917;28;20457;-58
2022/05/31 19:58:46;;;;;;;4.32;1.98;;;;;;;;;;5016381;28;20460;-58
2022/05/31 20:01:41;;;;;;;4.32;2.28;;;;;;;;;;5014104;28;20034;-59
2022/05/31 20:10:42;;;;;;;2.92;2.22;;;;;;;;;;5013742;28;20052;-57
2022/05/31 20:13:34;;;;;;;2.92;1.55;;;;;;;;;;5014058;28;20107;-58
2022/05/31 20:16:08;;;;;;;8.35;1.98;;;;;;;;;;5010642;28;20061;-58
2022/05/31 20:18:50;;;;;;;3.45;1.83;;;;;;;;;;5013914;28;20471;-58
2022/05/31 20:24:37;;;;;;;7.30;1.88;;;;;;;;;;4995078;28;20033;-58
2022/05/31 20:27:12;;;;;;;2.53;1.40;;;;;;;;;;5015383;28;20053;-58
2022/05/31 20:30:11;;;;;;;3.60;1.67;;;;;;;;;;4980962;28;20141;-58
2022/05/31 20:33:03;;;;;;;3.55;2.00;;;;;;;;;;4955961;28;20067;-58
2022/05/31 20:35:43;;;;;;;3.20;2.08;;;;;;;;;;5001287;28;20046;-58
2022/05/31 20:38:42;;;;;;;4.25;1.85;;;;;;;;;;5004019;28;20144;-58
2022/05/31 20:41:32;;;;;;;5.82;1.63;;;;;;;;;;4991991;28;20093;-58
2022/05/31 20:44:17;;;;;;;3.90;1.70;;;;;;;;;;5019388;28;20029;-58
2022/05/31 20:47:08;;;;;;;6.53;1.88;;;;;;;;;;5029242;28;20033;-58
2022/05/31 20:53:20;;;;;;;2.33;1.60;;;;;;;;;;5012417;28;20093;-58
2022/05/31 20:56:05;;;;;;;5.93;2.78;;;;;;;;;;4981575;28;20536;-58
2022/05/31 20:58:42;;;;;;;2.72;1.50;;;;;;;;;;5014424;28;20033;-58
2022/05/31 21:04:35;;;;;;;3.05;1.63;;;;;;;;;;4975443;28;20037;-58
2022/05/31 21:07:13;;;;;;;3.40;1.77;;;;;;;;;;5019400;28;20040;-58
2022/05/31 21:10:01;;;;;;;2.88;2.00;;;;;;;;;;5011931;28;20038;-58
2022/05/31 21:12:43;;;;;;;2.78;2.22;;;;;;;;;;5019488;28;20427;-58
2022/05/31 21:18:03;;;;;;;3.17;2.08;;;;;;;;;;4922271;29;20024;-58
2022/05/31 21:21:02;;;;;;;2.83;2.08;;;;;;;;;;4922921;29;20080;-58
2022/05/31 21:24:02;;;;;;;6.07;2.47;;;;;;;;;;4997759;28;20073;-58
2022/05/31 21:29:56;;;;;;;5.00;2.38;;;;;;;;;;4980761;28;20081;-58
2022/05/31 21:32:31;;;;;;;3.90;2.08;;;;;;;;;;4956747;28;20729;-58
2022/05/31 21:35:21;;;;;;;5.55;2.53;;;;;;;;;;4980551;28;20043;-58
2022/05/31 21:38:14;;;;;;;3.83;2.58;;;;;;;;;;4961341;28;20031;-58
2022/05/31 21:43:37;;;;;;;2.95;2.17;;;;;;;;;;4977426;28;20496;-58
2022/05/31 21:46:31;;;;;;;3.95;2.63;;;;;;;;;;4980276;28;20035;-58
2022/05/31 21:49:14;;;;;;;4.90;2.55;;;;;;;;;;5000828;28;20042;-58
2022/05/31 21:52:03;;;;;;;3.08;2.33;;;;;;;;;;5000315;28;20040;-58
2022/05/31 21:54:48;;;;;;;2.78;2.03;;;;;;;;;;4988028;28;20074;-58
2022/05/31 21:57:50;;;;;;;4.28;2.30;;;;;;;;;;5004131;28;20037;-58
2022/05/31 22:00:45;;;;;;;4.70;2.05;;;;;;;;;;5046523;28;20053;-58
2022/05/31 22:03:33;;;;;;;3.60;2.55;;;;;;;;;;5026237;28;20042;-58
2022/05/31 22:12:23;;;;;;;4.50;2.25;;;;;;;;;;5014731;28;20084;-58
2022/05/31 22:15:25;;;;;;;;;;;;;;;;;;;;;
2022/05/31 22:21:05;;;;;;;4.68;2.50;;;;;;;;;;4969731;29;20032;-58
2022/05/31 22:23:56;;;;;;;4.30;2.08;;;;;;;;;;5003773;28;20096;-58
2022/05/31 22:29:58;;;;;;;2.97;2.17;;;;;;;;;;5023589;28;20042;-58
2022/05/31 22:32:48;;;;;;;3.67;2.05;;;;;;;;;;5029046;28;20034;-58
2022/05/31 22:35:58;;;;;;;2.97;1.60;;;;;;;;;;5029064;28;20046;-58
2022/05/31 22:38:55;;;;;;;3.30;2.10;;;;;;;;;;4969445;29;20090;-58
2022/05/31 22:50:23;;;;;;;5.65;2.20;;;;;;;;;;4951050;29;20063;-58
2022/05/31 22:56:12;;;;;;;2.13;1.55;;;;;;;;;;5001973;28;20033;-58
2022/05/31 23:01:46;;;;;;;2.42;1.50;;;;;;;;;;5030905;28;20044;-58
2022/05/31 23:04:28;;;;;;;2.53;1.42;;;;;;;;;;5012263;28;20049;-57
2022/05/31 23:07:20;;;;;;;2.85;1.48;;;;;;;;;;5030769;28;20094;-58
2022/05/31 23:13:03;;;;;;;3.03;1.50;;;;;;;;;;5030647;28;20029;-58
2022/05/31 23:15:52;;;;;;;3.88;1.80;;;;;;;;;;5030109;28;20049;-57
2022/05/31 23:18:42;;;;;;;3.25;1.95;;;;;;;;;;5030585;28;20452;-58